createdAt,value
2023-05-05T00:00:13.758Z,15.5693
2023-05-05T00:01:14.809Z,15.5327
2023-05-05T00:02:15.424Z,15.5501
2023-05-05T00:03:16.730Z,15.5220
2023-05-05T00:04:18.039Z,15.5371
2023-05-05T00:05:18.293Z,15.5244
2023-05-05T00:06:18.840Z,15.5100
2023-05-05T00:07:19.366Z,15.4987
2023-05-05T00:08:19.678Z,15.4871
2023-05-05T00:09:20.233Z,15.4641
2023-05-05T00:10:21.108Z,15.4393
2023-05-05T00:11:22.177Z,15.4224
2023-05-05T00:12:22.752Z,15.4142
2023-05-05T00:13:23.906Z,15.3496
2023-05-05T00:14:24.702Z,15.3032
2023-05-05T00:15:25.265Z,15.2903
2023-05-05T00:16:26.065Z,15.2538
2023-05-05T00:17:26.985Z,15.1948
2023-05-05T00:18:28.135Z,15.1579
2023-05-05T00:19:28.868Z,15.0892
2023-05-05T00:20:30.070Z,15.0569
2023-05-05T00:21:30.842Z,15.0330
2023-05-05T00:22:31.664Z,14.9875
2023-05-05T00:23:32.228Z,14.9400
2023-05-05T00:24:32.881Z,14.9056
2023-05-05T00:25:33.534Z,14.8688
2023-05-05T00:26:34.265Z,14.8221
2023-05-05T00:27:35.079Z,14.7748
2023-05-05T00:28:35.635Z,14.7526
2023-05-05T00:29:36.427Z,14.7084
2023-05-05T00:30:37.330Z,14.6684
2023-05-05T00:31:38.190Z,14.6516
2023-05-05T00:32:39.155Z,14.7023
2023-05-05T00:33:39.786Z,14.6815
2023-05-05T00:34:40.648Z,14.6677
2023-05-05T00:35:41.558Z,14.6625
2023-05-05T00:36:43.289Z,14.6557
2023-05-05T00:37:43.320Z,14.6395
2023-05-05T00:38:44.078Z,14.6449
2023-05-05T00:39:45.009Z,14.6763
2023-05-05T00:40:45.929Z,14.7323
2023-05-05T00:41:46.637Z,14.7590
2023-05-05T00:42:47.538Z,14.7662
2023-05-05T00:43:48.382Z,14.8000
2023-05-05T00:44:48.970Z,14.7931
2023-05-05T00:45:49.610Z,14.8158
2023-05-05T00:46:50.643Z,14.8174
2023-05-05T00:47:51.825Z,14.8117
2023-05-05T00:48:53.918Z,14.8025
2023-05-05T00:49:53.577Z,14.7838
2023-05-05T00:50:54.483Z,14.7504
2023-05-05T00:51:55.331Z,14.7109
2023-05-05T00:52:56.016Z,14.6716
2023-05-05T00:53:56.963Z,14.6246
2023-05-05T00:54:57.617Z,14.5950
2023-05-05T00:55:58.344Z,14.5692
2023-05-05T00:56:59.269Z,14.5569
2023-05-05T00:57:59.882Z,14.5705
2023-05-05T00:59:01.470Z,14.5936
2023-05-05T01:00:01.207Z,14.6309
2023-05-05T01:01:01.929Z,14.6433
2023-05-05T01:02:02.796Z,14.6238
2023-05-05T01:04:22.425Z,14.5921
2023-05-05T01:05:23.413Z,14.5771
2023-05-05T01:11:30.482Z,14.7065
2023-05-05T01:12:31.813Z,14.8255
2023-05-05T01:18:37.687Z,15.1116
2023-05-05T01:19:38.273Z,15.1287
2023-05-05T01:20:39.394Z,15.1420
2023-05-05T01:21:39.720Z,15.1534
2023-05-05T01:22:40.871Z,15.1305
2023-05-05T01:23:41.694Z,15.1194
2023-05-05T01:24:43.325Z,15.0940
2023-05-05T01:25:43.449Z,15.0698
2023-05-05T01:26:44.260Z,15.0394
2023-05-05T01:27:45.045Z,15.0190
2023-05-05T01:30:47.184Z,14.8796
2023-05-05T01:31:48.303Z,14.7719
2023-05-05T01:36:51.868Z,14.5086
2023-05-05T01:37:51.911Z,14.4827
2023-05-05T01:38:51.981Z,14.4603
2023-05-05T01:39:52.430Z,14.4050
2023-05-05T01:40:53.636Z,14.3679
2023-05-05T01:41:55.793Z,14.3449
2023-05-05T01:42:58.013Z,14.3152
2023-05-05T01:44:00.275Z,14.2635
2023-05-05T01:45:02.319Z,14.1931
2023-05-05T01:46:03.449Z,14.1383
2023-05-05T01:47:04.491Z,14.0805
2023-05-05T01:54:15.317Z,14.0517
2023-05-05T02:00:19.223Z,14.0030
2023-05-05T02:01:19.766Z,13.9948
2023-05-05T02:03:20.976Z,13.9435
2023-05-05T02:04:22.030Z,13.9159
2023-05-05T02:05:22.887Z,13.8865
2023-05-05T02:06:22.973Z,13.8802
2023-05-05T02:07:24.647Z,13.8681
2023-05-05T02:08:24.344Z,13.8688
2023-05-05T02:09:25.332Z,13.8846
2023-05-05T02:10:26.071Z,13.9235
2023-05-05T02:11:26.115Z,14.0286
2023-05-05T02:12:29.661Z,14.2126
2023-05-05T02:13:26.841Z,14.3731
2023-05-05T02:14:27.137Z,14.3919
2023-05-05T02:15:27.952Z,14.5070
2023-05-05T02:16:29.119Z,14.5552
2023-05-05T02:17:30.086Z,14.5893
2023-05-05T02:18:30.849Z,14.6557
2023-05-05T02:19:31.681Z,14.6646
2023-05-05T02:20:31.770Z,14.6393
2023-05-05T02:21:32.693Z,14.6711
2023-05-05T02:22:33.552Z,14.7624
2023-05-05T02:23:34.311Z,14.7786
2023-05-05T02:24:35.104Z,14.8308
2023-05-05T02:25:36.399Z,14.8935
2023-05-05T02:26:37.280Z,14.9099
2023-05-05T02:27:38.256Z,14.9309
2023-05-05T02:28:38.938Z,14.9461
2023-05-05T02:29:40.241Z,14.9263
2023-05-05T02:30:40.637Z,14.9042
2023-05-05T02:31:41.670Z,14.8858
2023-05-05T02:32:42.927Z,14.8792
2023-05-05T02:33:43.828Z,14.8498
2023-05-05T02:34:44.540Z,14.8227
2023-05-05T02:35:45.493Z,14.8095
2023-05-05T02:36:46.260Z,14.7845
2023-05-05T02:37:47.122Z,14.7421
2023-05-05T02:38:48.120Z,14.7131
2023-05-05T02:39:48.751Z,14.6780
2023-05-05T02:42:50.067Z,14.4805
2023-05-05T02:44:50.394Z,14.4130
2023-05-05T02:45:51.380Z,14.3315
2023-05-05T02:46:52.534Z,14.2741
2023-05-05T02:47:53.717Z,14.2475
2023-05-05T02:48:54.204Z,14.2008
2023-05-05T02:49:55.409Z,14.1128
2023-05-05T02:50:55.371Z,14.0962
2023-05-05T02:51:56.000Z,14.0646
2023-05-05T02:52:56.690Z,14.0490
2023-05-05T02:53:57.554Z,14.0162
2023-05-05T02:54:57.921Z,13.9839
2023-05-05T02:55:58.365Z,13.9615
2023-05-05T02:56:59.541Z,13.9676
2023-05-05T02:58:00.426Z,13.9825
2023-05-05T02:59:01.268Z,13.9955
2023-05-05T03:00:01.321Z,14.0113
2023-05-05T03:01:01.985Z,14.0162
2023-05-05T03:02:02.217Z,14.0139
2023-05-05T03:03:03.594Z,14.0064
2023-05-05T03:04:03.775Z,14.0101
2023-05-05T03:05:04.643Z,13.9985
2023-05-05T03:06:05.548Z,13.9880
2023-05-05T03:07:06.455Z,13.9753
2023-05-05T03:08:07.354Z,13.9489
2023-05-05T03:09:08.227Z,13.9396
2023-05-05T03:10:09.444Z,13.9087
2023-05-05T03:11:09.268Z,13.8932
2023-05-05T03:12:10.065Z,13.8771
2023-05-05T03:13:11.368Z,13.8706
2023-05-05T03:14:12.154Z,13.8730
2023-05-05T03:15:13.087Z,13.8539
2023-05-05T03:16:14.132Z,13.8094
2023-05-05T03:17:15.057Z,13.8161
2023-05-05T03:18:16.398Z,13.8104
2023-05-05T03:19:17.092Z,13.7923
2023-05-05T03:20:17.404Z,13.7652
2023-05-05T03:21:18.445Z,13.7655
2023-05-05T03:22:19.158Z,13.7468
2023-05-05T03:23:20.355Z,13.7538
2023-05-05T03:24:20.224Z,13.7556
2023-05-05T03:25:20.991Z,13.7603
2023-05-05T03:26:21.659Z,13.7773
2023-05-05T03:27:22.544Z,13.8176
2023-05-05T03:28:23.732Z,13.8392
2023-05-05T03:29:23.950Z,13.8549
2023-05-05T03:30:24.001Z,13.8630
2023-05-05T03:31:24.489Z,13.8647
2023-05-05T03:34:17.766Z,13.8558
2023-05-05T03:35:18.643Z,13.8562
2023-05-05T03:36:19.471Z,13.8587
2023-05-05T03:37:20.350Z,13.8567
2023-05-05T03:38:21.217Z,13.8829
2023-05-05T03:39:21.904Z,13.9034
2023-05-05T03:40:29.618Z,13.9040
2023-05-05T03:41:23.516Z,13.9209
2023-05-05T03:42:24.155Z,13.9251
2023-05-05T03:43:24.974Z,13.9188
2023-05-05T03:44:25.709Z,13.9200
2023-05-05T03:45:26.659Z,13.9193
2023-05-05T03:46:27.674Z,13.9209
2023-05-05T03:47:29.623Z,13.9234
2023-05-05T03:49:30.320Z,13.9266
2023-05-05T03:50:30.466Z,13.9246
2023-05-05T03:51:31.023Z,13.9208
2023-05-05T03:52:31.553Z,13.9153
2023-05-05T03:53:32.377Z,13.9115
2023-05-05T03:54:33.671Z,13.9145
2023-05-05T03:55:34.699Z,13.9089
2023-05-05T03:56:35.978Z,13.9037
2023-05-05T03:57:36.757Z,13.8813
2023-05-05T03:58:37.256Z,13.8784
2023-05-05T03:59:38.267Z,13.8634
2023-05-05T04:00:39.603Z,13.8491
2023-05-05T04:01:40.527Z,13.8380
2023-05-05T04:02:41.346Z,13.8132
2023-05-05T04:03:43.329Z,13.7904
2023-05-05T04:04:44.702Z,13.7612
2023-05-05T04:05:44.846Z,13.7385
2023-05-05T04:06:46.813Z,13.7104
2023-05-05T04:07:47.890Z,13.6945
2023-05-05T04:08:48.718Z,13.6723
2023-05-05T04:09:49.600Z,13.6533
2023-05-05T04:10:49.645Z,13.6285
2023-05-05T04:11:49.859Z,13.6146
2023-05-05T04:12:51.031Z,13.5972
2023-05-05T04:13:52.053Z,13.5853
2023-05-05T04:14:52.689Z,13.5664
2023-05-05T04:16:53.321Z,13.5595
2023-05-05T04:17:53.565Z,13.5348
2023-05-05T04:18:54.538Z,13.5201
2023-05-05T04:19:55.374Z,13.4996
2023-05-05T04:20:55.408Z,13.4832
2023-05-05T04:21:55.901Z,13.4618
2023-05-05T04:22:58.248Z,13.4408
2023-05-05T04:23:59.144Z,13.4191
2023-05-05T04:25:00.301Z,13.3971
2023-05-05T04:26:01.135Z,13.3759
2023-05-05T04:27:02.055Z,13.3490
2023-05-05T04:29:02.815Z,13.3111
2023-05-05T04:30:03.854Z,13.2958
2023-05-05T04:32:04.459Z,13.2771
2023-05-05T04:33:04.612Z,13.2435
2023-05-05T04:34:05.408Z,13.2119
2023-05-05T04:35:06.431Z,13.2033
2023-05-05T04:36:07.472Z,13.2491
2023-05-05T04:37:08.304Z,13.2500
2023-05-05T04:38:09.365Z,13.2463
2023-05-05T04:39:10.522Z,13.2658
2023-05-05T04:40:11.352Z,13.2528
2023-05-05T04:41:12.338Z,13.2585
2023-05-05T04:42:12.533Z,13.2893
2023-05-05T04:43:13.500Z,13.3099
2023-05-05T04:44:14.533Z,13.3322
2023-05-05T04:45:15.295Z,13.3399
2023-05-05T04:46:16.326Z,13.3610
2023-05-05T04:47:16.302Z,13.3839
2023-05-05T04:48:16.343Z,13.3988
2023-05-05T04:49:17.514Z,13.4023
2023-05-05T04:50:17.501Z,13.4127
2023-05-05T04:51:18.456Z,13.4154
2023-05-05T04:52:19.329Z,13.4108
2023-05-05T04:53:20.187Z,13.4056
2023-05-05T04:54:21.201Z,13.3933
2023-05-05T04:55:22.003Z,13.3813
2023-05-05T04:56:22.979Z,13.3702
2023-05-05T04:57:24.016Z,13.3441
2023-05-05T04:58:24.893Z,13.3391
2023-05-05T04:59:25.887Z,13.3148
2023-05-05T05:00:26.668Z,13.3027
2023-05-05T05:01:27.860Z,13.2846
2023-05-05T05:02:28.286Z,13.2654
2023-05-05T05:03:28.489Z,13.2678
2023-05-05T05:04:28.811Z,13.2581
2023-05-05T05:05:29.789Z,13.2491
2023-05-05T05:06:30.777Z,13.2567
2023-05-05T05:07:30.818Z,13.2561
2023-05-05T05:08:31.680Z,13.2660
2023-05-05T05:09:32.633Z,13.2710
2023-05-05T05:10:33.600Z,13.2873
2023-05-05T05:11:34.967Z,13.2885
2023-05-05T05:12:35.115Z,13.2993
2023-05-05T05:13:35.407Z,13.3672
2023-05-05T05:14:36.423Z,13.3880
2023-05-05T05:15:36.812Z,13.4004
2023-05-05T05:16:37.094Z,13.4181
2023-05-05T05:17:38.197Z,13.4366
2023-05-05T05:18:39.662Z,13.4279
2023-05-05T05:19:40.079Z,13.4172
2023-05-05T05:20:40.756Z,13.4056
2023-05-05T05:21:40.891Z,13.3940
2023-05-05T05:22:41.519Z,13.3958
2023-05-05T05:23:42.080Z,13.4011
2023-05-05T05:24:43.231Z,13.4022
2023-05-05T05:25:43.315Z,13.4162
2023-05-05T05:26:44.607Z,13.4464
2023-05-05T05:27:50.172Z,13.4760
2023-05-05T05:28:45.870Z,13.4953
2023-05-05T05:29:46.748Z,13.5291
2023-05-05T05:30:47.486Z,13.5774
2023-05-05T05:31:47.478Z,13.6008
2023-05-05T05:32:49.102Z,13.6288
2023-05-05T05:33:49.085Z,13.6529
2023-05-05T05:34:49.925Z,13.6669
2023-05-05T05:35:50.065Z,13.7054
2023-05-05T05:36:51.069Z,13.7438
2023-05-05T05:37:51.107Z,13.7607
2023-05-05T05:38:52.396Z,13.7797
2023-05-05T05:39:53.443Z,13.7758
2023-05-05T05:40:53.976Z,13.7685
2023-05-05T05:41:54.886Z,13.7636
2023-05-05T05:42:56.265Z,13.7774
2023-05-05T05:43:57.318Z,13.7994
2023-05-05T05:44:58.147Z,13.8241
2023-05-05T05:45:58.317Z,13.8446
2023-05-05T05:46:58.909Z,13.8682
2023-05-05T05:48:00.045Z,13.8939
2023-05-05T05:49:00.019Z,13.9248
2023-05-05T05:50:01.229Z,13.9550
2023-05-05T05:51:02.448Z,13.9865
2023-05-05T05:52:02.290Z,14.0110
2023-05-05T05:53:02.952Z,14.0245
2023-05-05T05:54:04.159Z,14.0438
2023-05-05T05:55:05.090Z,14.1337
2023-05-05T05:56:06.301Z,14.1795
2023-05-05T05:57:07.597Z,14.2576
2023-05-05T05:58:08.484Z,14.3400
2023-05-05T05:59:09.537Z,14.3975
2023-05-05T06:00:11.662Z,14.3950
2023-05-05T06:01:12.505Z,14.4100
2023-05-05T06:02:13.885Z,14.4656
2023-05-05T06:03:14.876Z,14.5068
2023-05-05T06:04:15.955Z,14.6009
2023-05-05T06:05:15.887Z,14.6245
2023-05-05T06:06:16.762Z,14.6599
2023-05-05T06:07:17.740Z,14.6832
2023-05-05T06:08:19.070Z,14.7107
2023-05-05T06:09:19.936Z,14.7201
2023-05-05T06:10:28.047Z,14.7414
2023-05-05T06:11:24.873Z,14.7525
2023-05-05T06:12:25.703Z,14.7572
2023-05-05T06:13:25.867Z,14.7807
2023-05-05T06:14:26.516Z,14.8062
2023-05-05T06:15:27.650Z,14.8255
2023-05-05T06:16:29.020Z,14.8379
2023-05-05T06:17:30.046Z,14.9034
2023-05-05T06:18:30.854Z,14.9480
2023-05-05T06:19:31.693Z,14.9784
2023-05-05T06:20:32.681Z,15.0158
2023-05-05T06:21:33.701Z,15.0408
2023-05-05T06:22:34.645Z,15.0852
2023-05-05T06:23:35.629Z,15.1285
2023-05-05T06:24:36.636Z,15.1471
2023-05-05T06:25:37.544Z,15.1950
2023-05-05T06:26:38.547Z,15.3180
2023-05-05T06:27:39.493Z,15.3893
2023-05-05T06:28:40.669Z,15.4520
2023-05-05T06:29:41.798Z,15.5408
2023-05-05T06:30:43.049Z,15.5663
2023-05-05T06:31:44.327Z,15.5789
2023-05-05T06:32:45.480Z,15.6213
2023-05-05T06:33:46.525Z,15.6715
2023-05-05T06:34:46.632Z,15.7067
2023-05-05T06:35:47.824Z,15.7324
2023-05-05T06:36:48.214Z,15.7454
2023-05-05T06:37:50.259Z,15.7601
2023-05-05T06:40:50.534Z,15.8289
2023-05-05T06:41:51.882Z,15.8300
2023-05-05T06:42:53.050Z,15.8896
2023-05-05T06:43:54.549Z,15.9519
2023-05-05T06:44:55.003Z,15.9751
2023-05-05T06:45:56.191Z,16.0457
2023-05-05T06:46:56.219Z,16.0833
2023-05-05T06:47:57.643Z,16.1200
2023-05-05T06:48:57.597Z,16.1314
2023-05-05T06:49:58.717Z,16.1482
2023-05-05T06:50:59.417Z,16.1965
2023-05-05T06:52:00.097Z,16.2635
2023-05-05T06:53:01.109Z,16.3055
2023-05-05T06:54:02.331Z,16.3167
2023-05-05T06:55:02.984Z,16.3658
2023-05-05T06:56:04.124Z,16.3652
2023-05-05T06:57:04.269Z,16.3837
2023-05-05T06:58:05.230Z,16.4075
2023-05-05T06:59:06.426Z,16.4837
2023-05-05T07:00:07.832Z,16.4750
2023-05-05T07:01:08.111Z,16.4380
2023-05-05T07:02:08.184Z,16.3927
2023-05-05T07:03:08.302Z,16.4157
2023-05-05T07:04:08.549Z,16.3965
2023-05-05T07:05:09.648Z,16.3506
2023-05-05T07:06:10.747Z,16.3732
2023-05-05T07:07:12.012Z,16.3533
2023-05-05T07:08:13.085Z,16.3810
2023-05-05T07:09:15.755Z,16.4187
2023-05-05T07:10:15.653Z,16.4363
2023-05-05T07:11:16.422Z,16.4642
2023-05-05T07:12:17.622Z,16.4845
2023-05-05T07:13:19.001Z,16.5103
2023-05-05T07:14:19.041Z,16.5249
2023-05-05T07:15:29.096Z,16.5362
2023-05-05T07:16:24.623Z,16.5764
2023-05-05T07:17:25.864Z,16.6326
2023-05-05T07:18:25.872Z,16.6915
2023-05-05T07:19:26.770Z,16.6706
2023-05-05T07:20:27.922Z,16.7446
2023-05-05T07:21:28.928Z,16.7674
2023-05-05T07:22:30.116Z,16.8150
2023-05-05T07:23:31.265Z,16.8703
2023-05-05T07:24:32.261Z,16.8519
2023-05-05T07:25:33.399Z,16.8580
2023-05-05T07:26:34.711Z,16.9289
2023-05-05T07:27:35.811Z,16.9678
2023-05-05T07:28:36.930Z,16.9860
2023-05-05T07:29:37.833Z,16.9455
2023-05-05T07:30:38.260Z,16.9957
2023-05-05T07:31:39.547Z,16.9591
2023-05-05T07:32:39.614Z,16.9800
2023-05-05T07:33:40.761Z,16.9874
2023-05-05T07:34:41.626Z,16.9814
2023-05-05T07:35:42.597Z,16.9433
2023-05-05T07:36:43.756Z,16.9624
2023-05-05T07:37:44.718Z,16.9590
2023-05-05T07:38:44.965Z,16.9668
2023-05-05T07:39:45.939Z,16.9664
2023-05-05T07:40:46.649Z,16.9133
2023-05-05T07:41:47.811Z,16.9630
2023-05-05T07:42:48.826Z,17.0371
2023-05-05T07:43:49.951Z,17.0798
2023-05-05T07:44:50.957Z,17.1376
2023-05-05T07:45:52.133Z,17.1848
2023-05-05T07:46:52.137Z,17.1708
2023-05-05T07:47:53.249Z,17.1698
2023-05-05T07:49:54.211Z,17.1174
2023-05-05T07:50:54.619Z,17.1191
2023-05-05T07:51:55.873Z,17.1256
2023-05-05T07:53:02.525Z,17.1390
2023-05-05T07:53:56.873Z,17.1494
2023-05-05T07:54:57.074Z,17.2164
2023-05-05T07:55:58.079Z,17.2947
2023-05-05T07:56:59.023Z,17.2656
2023-05-05T07:58:00.200Z,17.1764
2023-05-05T07:59:01.299Z,17.1977
2023-05-05T08:00:02.151Z,17.2000
2023-05-05T08:01:02.226Z,17.1787
2023-05-05T08:02:03.138Z,17.1658
2023-05-05T08:03:03.878Z,17.1816
2023-05-05T08:04:04.938Z,17.2425
2023-05-05T08:05:05.060Z,17.2660
2023-05-05T08:06:04.990Z,17.2882
2023-05-05T08:07:06.102Z,17.3355
2023-05-05T08:08:06.706Z,17.4063
2023-05-05T08:09:07.624Z,17.4333
2023-05-05T08:10:08.916Z,17.4884
2023-05-05T08:11:10.037Z,17.5399
2023-05-05T08:12:10.763Z,17.4828
2023-05-05T08:13:11.071Z,17.4015
2023-05-05T08:14:12.289Z,17.4433
2023-05-05T08:15:12.588Z,17.4845
2023-05-05T08:16:12.708Z,17.5507
2023-05-05T08:17:13.845Z,17.5399
2023-05-05T08:18:14.017Z,17.5486
2023-05-05T08:19:27.566Z,17.5500
2023-05-05T08:20:14.638Z,17.5351
2023-05-05T08:21:14.744Z,17.5207
2023-05-05T08:22:15.881Z,17.4735
2023-05-05T08:23:16.010Z,17.4636
2023-05-05T08:24:17.403Z,17.4388
2023-05-05T08:25:18.667Z,17.5271
2023-05-05T08:26:18.845Z,17.5658
2023-05-05T08:27:19.812Z,17.5107
2023-05-05T08:28:19.895Z,17.5460
2023-05-05T08:29:20.913Z,17.5891
2023-05-05T08:30:20.963Z,17.7687
2023-05-05T08:31:22.211Z,17.8231
2023-05-05T08:34:23.877Z,17.7162
2023-05-05T08:35:24.301Z,17.7767
2023-05-05T08:36:25.543Z,17.9426
2023-05-05T08:37:26.558Z,18.0427
2023-05-05T08:38:27.720Z,18.0207
2023-05-05T08:39:27.998Z,17.9432
2023-05-05T08:40:28.584Z,17.8872
2023-05-05T08:41:29.640Z,17.8882
2023-05-05T08:42:36.937Z,17.9974
2023-05-05T08:43:31.931Z,18.0875
2023-05-05T08:44:33.150Z,18.0970
2023-05-05T08:45:34.059Z,18.1061
2023-05-05T08:46:35.265Z,18.1369
2023-05-05T08:47:35.496Z,18.2130
2023-05-05T08:48:35.734Z,18.2856
2023-05-05T08:50:36.732Z,18.3045
2023-05-05T08:51:37.503Z,18.2992
2023-05-05T08:52:39.080Z,18.3284
2023-05-05T08:53:40.164Z,18.3728
2023-05-05T08:54:40.221Z,18.2914
2023-05-05T08:55:40.695Z,18.3599
2023-05-05T08:56:41.984Z,18.4290
2023-05-05T08:57:43.406Z,18.4499
2023-05-05T08:58:44.386Z,18.5429
2023-05-05T08:59:44.453Z,18.4278
2023-05-05T09:00:45.735Z,18.4521
2023-05-05T09:01:45.990Z,18.4704
2023-05-05T09:02:46.242Z,18.4848
2023-05-05T09:03:47.266Z,18.4875
2023-05-05T09:04:48.556Z,18.4912
2023-05-05T09:05:49.049Z,18.4869
2023-05-05T09:06:49.131Z,18.4667
2023-05-05T09:07:50.384Z,18.4373
2023-05-05T09:08:51.676Z,18.4306
2023-05-05T09:09:51.693Z,18.4107
2023-05-05T09:10:51.997Z,18.4115
2023-05-05T09:11:53.162Z,18.3985
2023-05-05T09:12:53.251Z,18.4184
2023-05-05T09:13:53.462Z,18.4689
2023-05-05T09:14:53.402Z,18.4516
2023-05-05T09:15:53.538Z,18.5371
2023-05-05T09:16:53.547Z,18.5604
2023-05-05T09:17:53.767Z,18.4613
2023-05-05T09:18:54.982Z,18.5497
2023-05-05T09:19:55.046Z,18.6803
2023-05-05T09:20:58.143Z,18.5138
2023-05-05T09:21:56.743Z,18.5363
2023-05-05T09:22:57.976Z,18.5116
2023-05-05T09:24:04.897Z,18.5480
2023-05-05T09:24:59.700Z,18.5918
2023-05-05T09:25:59.917Z,18.6101
2023-05-05T09:27:01.356Z,18.7006
2023-05-05T09:28:01.327Z,18.6971
2023-05-05T09:29:01.418Z,18.8689
2023-05-05T09:30:02.653Z,18.7720
2023-05-05T09:31:02.736Z,18.7724
2023-05-05T09:32:02.828Z,18.7873
2023-05-05T09:33:03.559Z,18.8392
2023-05-05T09:34:04.720Z,18.8664
2023-05-05T09:35:04.730Z,18.8934
2023-05-05T09:36:04.877Z,18.9436
2023-05-05T09:37:06.370Z,18.9572
2023-05-05T09:38:07.017Z,18.9662
2023-05-05T09:39:07.280Z,18.9948
2023-05-05T09:40:07.389Z,19.1232
2023-05-05T09:41:08.637Z,19.1755
2023-05-05T09:42:09.910Z,19.1738
2023-05-05T09:43:10.073Z,19.1299
2023-05-05T09:44:10.164Z,19.1129
2023-05-05T09:45:11.342Z,19.2119
2023-05-05T09:46:11.545Z,19.3027
2023-05-05T09:47:28.989Z,19.3659
2023-05-05T09:48:17.325Z,19.3710
2023-05-05T09:49:17.453Z,19.4206
2023-05-05T09:50:17.757Z,19.5039
2023-05-05T09:51:17.843Z,19.5070
2023-05-05T09:52:17.863Z,19.5503
2023-05-05T09:53:18.177Z,19.6071
2023-05-05T09:54:18.278Z,19.5909
2023-05-05T09:55:18.650Z,19.5854
2023-05-05T09:56:19.119Z,19.5616
2023-05-05T09:57:20.404Z,19.7274
2023-05-05T09:58:20.703Z,19.7056
2023-05-05T09:59:20.629Z,19.7093
2023-05-05T10:00:21.293Z,19.8191
2023-05-05T10:01:21.266Z,19.6837
2023-05-05T10:02:21.598Z,19.7571
2023-05-05T10:03:21.722Z,19.8411
2023-05-05T10:04:21.879Z,19.9107
2023-05-05T10:05:22.110Z,20.0326
2023-05-05T10:06:22.396Z,20.0976
2023-05-05T10:07:23.685Z,20.1196
2023-05-05T10:08:23.712Z,20.0590
2023-05-05T10:09:25.323Z,20.0192
2023-05-05T10:10:26.920Z,20.0223
2023-05-05T10:11:25.865Z,20.0680
2023-05-05T10:12:27.021Z,20.1558
2023-05-05T10:13:27.361Z,20.2594
2023-05-05T10:14:28.612Z,20.2240
2023-05-05T10:15:28.899Z,20.1135
2023-05-05T10:16:29.712Z,20.1416
2023-05-05T10:17:30.282Z,20.1242
2023-05-05T10:18:30.947Z,20.0659
2023-05-05T10:19:30.873Z,19.9369
2023-05-05T10:20:31.087Z,20.0434
2023-05-05T10:21:31.140Z,19.9716
2023-05-05T10:22:31.325Z,20.0468
2023-05-05T10:23:31.464Z,20.1605
2023-05-05T10:24:31.746Z,20.2128
2023-05-05T10:27:33.220Z,20.1301
2023-05-05T10:28:33.347Z,20.2830
2023-05-05T10:29:34.827Z,20.3936
2023-05-05T10:30:35.417Z,20.4728
2023-05-05T10:31:35.551Z,20.5596
2023-05-05T10:33:42.679Z,20.6633
2023-05-05T10:34:43.809Z,20.6563
2023-05-05T10:35:45.028Z,20.5666
2023-05-05T10:36:45.333Z,20.4532
2023-05-05T10:37:45.242Z,20.5024
2023-05-05T10:38:45.304Z,20.5531
2023-05-05T10:39:46.760Z,20.6227
2023-05-05T10:40:47.625Z,20.5838
2023-05-05T10:41:48.004Z,20.5771
2023-05-05T10:42:48.004Z,20.5586
2023-05-05T10:43:48.171Z,20.4583
2023-05-05T10:44:48.286Z,20.4659
2023-05-05T10:45:49.115Z,20.4749
2023-05-05T10:46:49.663Z,20.3550
2023-05-05T10:47:50.118Z,20.3383
2023-05-05T10:48:50.744Z,20.2874
2023-05-05T10:49:50.689Z,20.2622
2023-05-05T10:50:50.823Z,20.2685
2023-05-05T10:51:51.407Z,20.3371
2023-05-05T10:52:51.683Z,20.4320
2023-05-05T10:53:52.978Z,20.3940
2023-05-05T10:54:53.418Z,20.3763
2023-05-05T10:55:53.386Z,20.5656
2023-05-05T10:56:53.820Z,20.5400
2023-05-05T10:57:53.831Z,20.4973
2023-05-05T10:59:00.141Z,20.4199
2023-05-05T10:59:55.230Z,20.3659
2023-05-05T11:00:55.503Z,20.3701
2023-05-05T11:01:56.291Z,20.5285
2023-05-05T11:02:57.236Z,20.6281
2023-05-05T11:03:57.949Z,20.5978
2023-05-05T11:04:58.233Z,20.6864
2023-05-05T11:05:58.380Z,20.7992
2023-05-05T11:06:59.649Z,20.8326
2023-05-05T11:08:00.709Z,20.9204
2023-05-05T11:09:00.821Z,21.0360
2023-05-05T11:10:01.002Z,21.0544
2023-05-05T11:11:01.860Z,21.0682
2023-05-05T11:12:02.315Z,21.2214
2023-05-05T11:13:02.750Z,21.2852
2023-05-05T11:14:03.757Z,21.1701
2023-05-05T11:15:03.919Z,21.1661
2023-05-05T11:16:04.097Z,21.1879
2023-05-05T11:17:04.681Z,21.1513
2023-05-05T11:18:07.376Z,21.1488
2023-05-05T11:19:05.063Z,21.0198
2023-05-05T11:20:05.121Z,21.0799
2023-05-05T11:21:05.481Z,20.9998
2023-05-05T11:22:05.689Z,20.9741
2023-05-05T11:23:05.886Z,21.1406
2023-05-05T11:24:06.056Z,21.3504
2023-05-05T11:25:07.249Z,21.2732
2023-05-05T11:26:07.502Z,21.1487
2023-05-05T11:27:08.921Z,21.1707
2023-05-05T11:28:09.107Z,21.3398
2023-05-05T11:29:09.272Z,21.2853
2023-05-05T11:30:10.520Z,21.4290
2023-05-05T11:31:10.709Z,21.5618
2023-05-05T11:32:11.010Z,21.6619
2023-05-05T11:33:11.141Z,21.7532
2023-05-05T11:34:12.378Z,21.8013
2023-05-05T11:35:12.497Z,21.7701
2023-05-05T11:36:13.950Z,21.9449
2023-05-05T11:37:15.285Z,22.0683
2023-05-05T11:38:15.478Z,22.1468
2023-05-05T11:39:16.763Z,21.9061
2023-05-05T11:40:17.019Z,21.9923
2023-05-05T11:41:17.071Z,21.7398
2023-05-05T11:42:18.305Z,21.6703
2023-05-05T11:43:18.530Z,21.7172
2023-05-05T11:44:18.570Z,21.8528
2023-05-05T11:45:18.693Z,21.9030
2023-05-05T11:46:19.104Z,21.8803
2023-05-05T11:47:19.596Z,21.9403
2023-05-05T11:48:20.080Z,22.2193
2023-05-05T11:49:20.637Z,22.3383
2023-05-05T11:50:20.590Z,22.3603
2023-05-05T11:51:20.714Z,22.3217
2023-05-05T11:52:20.765Z,22.3355
2023-05-05T11:53:21.050Z,22.3951
2023-05-05T11:54:21.285Z,22.3956
2023-05-05T11:55:21.369Z,22.5587
2023-05-05T11:56:22.810Z,22.3663
2023-05-05T11:57:22.895Z,22.3375
2023-05-05T11:58:23.136Z,22.4566
2023-05-05T11:59:24.423Z,22.1476
2023-05-05T12:00:24.621Z,22.0095
2023-05-05T12:01:25.915Z,22.0322
2023-05-05T12:02:26.332Z,22.2315
2023-05-05T12:03:28.138Z,22.3424
2023-05-05T12:04:28.533Z,22.3672
2023-05-05T12:05:28.916Z,22.0721
2023-05-05T12:06:29.233Z,22.0157
2023-05-05T12:07:29.370Z,22.1086
2023-05-05T12:08:29.402Z,22.1499
2023-05-05T12:09:29.503Z,22.3284
2023-05-05T12:10:30.642Z,22.4929
2023-05-05T12:11:31.966Z,22.7553
2023-05-05T12:12:32.337Z,23.0141
2023-05-05T12:13:33.246Z,23.2892
2023-05-05T12:14:34.464Z,23.0886
2023-05-05T12:15:34.676Z,22.8554
2023-05-05T12:16:34.882Z,22.9039
2023-05-05T12:17:35.533Z,22.7408
2023-05-05T12:18:36.222Z,22.6647
2023-05-05T12:19:36.337Z,22.8943
2023-05-05T12:20:37.680Z,22.9481
2023-05-05T12:21:37.860Z,23.1384
2023-05-05T12:22:38.058Z,23.2254
2023-05-05T12:23:38.616Z,23.1493
2023-05-05T12:24:38.630Z,23.0860
2023-05-05T12:25:38.864Z,23.0262
2023-05-05T12:26:38.876Z,23.0876
2023-05-05T12:27:39.285Z,23.3357
2023-05-05T12:28:39.356Z,23.6806
2023-05-05T12:29:39.623Z,23.3724
2023-05-05T12:30:40.655Z,23.3320
2023-05-05T12:31:41.095Z,23.3269
2023-05-05T12:32:41.716Z,23.2894
2023-05-05T12:33:41.942Z,23.7471
2023-05-05T12:34:42.107Z,23.9082
2023-05-05T12:35:42.100Z,23.8915
2023-05-05T12:36:42.685Z,24.4255
2023-05-05T12:37:43.914Z,24.4757
2023-05-05T12:38:44.154Z,24.5611
2023-05-05T12:39:45.634Z,24.4180
2023-05-05T12:40:46.407Z,24.2458
2023-05-05T12:41:46.537Z,23.9118
2023-05-05T12:42:46.627Z,24.1551
2023-05-05T12:43:46.822Z,24.2586
2023-05-05T12:44:46.800Z,24.4920
2023-05-05T12:45:47.135Z,24.8242
2023-05-05T12:46:47.617Z,24.8605
2023-05-05T12:47:48.059Z,25.0744
2023-05-05T12:48:48.601Z,25.1299
2023-05-05T12:49:48.941Z,25.2488
2023-05-05T12:50:50.450Z,25.2962
2023-05-05T12:51:50.516Z,25.1427
2023-05-05T12:52:50.724Z,24.7330
2023-05-05T12:53:51.753Z,24.4362
2023-05-05T12:54:52.953Z,24.7602
2023-05-05T12:55:53.277Z,24.6968
2023-05-05T12:56:53.482Z,24.8221
2023-05-05T12:57:53.666Z,24.9813
2023-05-05T12:58:53.864Z,25.3022
2023-05-05T12:59:55.174Z,25.6386
2023-05-05T13:00:55.739Z,25.5534
2023-05-05T13:01:56.202Z,25.8323